sensor_id;sensor_type;location;lat;lon;timestamp;temperature;humidity
652;DHT22;310;48.490;9.200;2023-08-07T00:00:34;15.30;50.50
652;DHT22;310;48.490;9.200;2023-08-07T00:03:00;14.90;51.60
652;DHT22;310;48.490;9.200;2023-08-07T00:05:25;14.40;54.20
652;DHT22;310;48.490;9.200;2023-08-07T00:07:51;15.00;53.80
652;DHT22;310;48.490;9.200;2023-08-07T00:10:17;14.80;53.00
652;DHT22;310;48.490;9.200;2023-08-07T00:12:43;15.40;51.90
652;DHT22;310;48.490;9.200;2023-08-07T00:15:09;16.10;48.90
652;DHT22;310;48.490;9.200;2023-08-07T00:17:35;15.60;48.70
652;DHT22;310;48.490;9.200;2023-08-07T00:20:01;15.80;48.60
652;DHT22;310;48.490;9.200;2023-08-07T00:22:27;16.10;45.60
652;DHT22;310;48.490;9.200;2023-08-07T00:24:52;16.80;45.70
652;DHT22;310;48.490;9.200;2023-08-07T00:27:18;16.30;44.80
652;DHT22;310;48.490;9.200;2023-08-07T00:29:44;16.40;44.90
652;DHT22;310;48.490;9.200;2023-08-07T00:32:09;16.50;44.50
652;DHT22;310;48.490;9.200;2023-08-07T00:34:35;16.10;45.80
652;DHT22;310;48.490;9.200;2023-08-07T00:37:00;15.80;46.60
652;DHT22;310;48.490;9.200;2023-08-07T00:39:26;15.60;47.40
652;DHT22;310;48.490;9.200;2023-08-07T00:41:51;15.20;50.00
652;DHT22;310;48.490;9.200;2023-08-07T00:44:17;16.50;49.60
652;DHT22;310;48.490;9.200;2023-08-07T00:46:43;15.80;47.40
652;DHT22;310;48.490;9.200;2023-08-07T00:49:09;16.00;46.90
652;DHT22;310;48.490;9.200;2023-08-07T00:51:37;15.50;48.30
652;DHT22;310;48.490;9.200;2023-08-07T00:54:04;15.70;47.40
652;DHT22;310;48.490;9.200;2023-08-07T00:56:30;15.30;48.20
652;DHT22;310;48.490;9.200;2023-08-07T00:59:00;14.70;50.90
652;DHT22;310;48.490;9.200;2023-08-07T01:01:26;14.80;51.30
652;DHT22;310;48.490;9.200;2023-08-07T01:03:52;15.20;51.10
652;DHT22;310;48.490;9.200;2023-08-07T01:06:18;15.90;47.50
652;DHT22;310;48.490;9.200;2023-08-07T01:08:45;14.80;51.30
652;DHT22;310;48.490;9.200;2023-08-07T01:11:34;15.70;48.90
652;DHT22;310;48.490;9.200;2023-08-07T01:14:15;15.30;48.90
652;DHT22;310;48.490;9.200;2023-08-07T01:17:15;15.00;50.70
652;DHT22;310;48.490;9.200;2023-08-07T01:19:41;15.00;50.30
652;DHT22;310;48.490;9.200;2023-08-07T01:24:37;15.50;49.70
652;DHT22;310;48.490;9.200;2023-08-07T01:32:58;15.10;50.00
652;DHT22;310;48.490;9.200;2023-08-07T01:35:29;15.10;49.90
652;DHT22;310;48.490;9.200;2023-08-07T01:37:57;15.30;48.10
652;DHT22;310;48.490;9.200;2023-08-07T01:40:24;15.10;49.10
652;DHT22;310;48.490;9.200;2023-08-07T01:42:49;14.80;52.20
652;DHT22;310;48.490;9.200;2023-08-07T01:45:26;14.80;50.60
652;DHT22;310;48.490;9.200;2023-08-07T01:47:52;15.50;50.50
652;DHT22;310;48.490;9.200;2023-08-07T01:50:19;15.20;49.20
652;DHT22;310;48.490;9.200;2023-08-07T01:52:45;15.40;48.40
652;DHT22;310;48.490;9.200;2023-08-07T01:55:11;15.70;49.20
652;DHT22;310;48.490;9.200;2023-08-07T01:57:37;16.10;45.80
652;DHT22;310;48.490;9.200;2023-08-07T02:00:03;15.50;46.80
652;DHT22;310;48.490;9.200;2023-08-07T02:02:29;15.20;48.10
652;DHT22;310;48.490;9.200;2023-08-07T02:04:54;15.50;48.90
652;DHT22;310;48.490;9.200;2023-08-07T02:07:20;15.30;48.00
652;DHT22;310;48.490;9.200;2023-08-07T02:09:45;15.30;48.30
652;DHT22;310;48.490;9.200;2023-08-07T02:12:11;15.40;47.60
652;DHT22;310;48.490;9.200;2023-08-07T02:14:36;15.50;47.10
652;DHT22;310;48.490;9.200;2023-08-07T02:17:02;15.30;50.40
652;DHT22;310;48.490;9.200;2023-08-07T02:19:28;14.80;50.00
652;DHT22;310;48.490;9.200;2023-08-07T02:21:53;14.90;49.30
652;DHT22;310;48.490;9.200;2023-08-07T02:24:19;14.50;53.30
652;DHT22;310;48.490;9.200;2023-08-07T02:26:45;15.60;50.10
652;DHT22;310;48.490;9.200;2023-08-07T02:29:11;15.40;48.10
652;DHT22;310;48.490;9.200;2023-08-07T02:31:36;15.10;49.00
652;DHT22;310;48.490;9.200;2023-08-07T02:34:02;15.20;47.50
652;DHT22;310;48.490;9.200;2023-08-07T02:36:27;15.30;48.70
652;DHT22;310;48.490;9.200;2023-08-07T02:38:53;14.70;49.80
652;DHT22;310;48.490;9.200;2023-08-07T02:41:18;15.20;49.30
652;DHT22;310;48.490;9.200;2023-08-07T02:43:44;15.10;48.40
652;DHT22;310;48.490;9.200;2023-08-07T02:46:10;15.50;45.70
652;DHT22;310;48.490;9.200;2023-08-07T02:48:35;15.00;46.70
652;DHT22;310;48.490;9.200;2023-08-07T02:51:01;15.30;48.30
652;DHT22;310;48.490;9.200;2023-08-07T02:53:26;15.00;47.60
652;DHT22;310;48.490;9.200;2023-08-07T02:55:52;14.70;49.00
652;DHT22;310;48.490;9.200;2023-08-07T02:58:17;14.90;46.60
652;DHT22;310;48.490;9.200;2023-08-07T03:00:43;15.30;47.90
652;DHT22;310;48.490;9.200;2023-08-07T03:03:09;14.70;49.70
652;DHT22;310;48.490;9.200;2023-08-07T03:05:34;15.10;49.80
652;DHT22;310;48.490;9.200;2023-08-07T03:08:00;15.00;47.10
652;DHT22;310;48.490;9.200;2023-08-07T03:10:26;15.20;45.80
652;DHT22;310;48.490;9.200;2023-08-07T03:12:51;14.80;47.40
652;DHT22;310;48.490;9.200;2023-08-07T03:15:17;14.90;49.80
652;DHT22;310;48.490;9.200;2023-08-07T03:17:43;15.10;46.90
652;DHT22;310;48.490;9.200;2023-08-07T03:20:08;15.20;46.60
652;DHT22;310;48.490;9.200;2023-08-07T03:22:34;15.10;46.30
652;DHT22;310;48.490;9.200;2023-08-07T03:25:00;15.00;46.30
652;DHT22;310;48.490;9.200;2023-08-07T03:27:26;15.00;46.70
652;DHT22;310;48.490;9.200;2023-08-07T03:29:51;15.50;45.60
652;DHT22;310;48.490;9.200;2023-08-07T03:32:17;15.00;46.10
652;DHT22;310;48.490;9.200;2023-08-07T03:34:43;15.70;44.50
652;DHT22;310;48.490;9.200;2023-08-07T03:37:08;15.50;44.60
652;DHT22;310;48.490;9.200;2023-08-07T03:39:34;15.70;43.60
652;DHT22;310;48.490;9.200;2023-08-07T03:41:59;15.80;43.20
652;DHT22;310;48.490;9.200;2023-08-07T03:44:25;15.30;43.90
652;DHT22;310;48.490;9.200;2023-08-07T03:46:51;15.30;44.10
652;DHT22;310;48.490;9.200;2023-08-07T03:49:17;15.30;45.00
652;DHT22;310;48.490;9.200;2023-08-07T03:51:42;15.50;43.30
652;DHT22;310;48.490;9.200;2023-08-07T03:54:08;15.90;43.10
652;DHT22;310;48.490;9.200;2023-08-07T03:56:33;16.20;42.20
652;DHT22;310;48.490;9.200;2023-08-07T03:59:02;15.80;42.30
652;DHT22;310;48.490;9.200;2023-08-07T04:01:28;16.30;42.60
652;DHT22;310;48.490;9.200;2023-08-07T04:03:53;15.50;43.00
652;DHT22;310;48.490;9.200;2023-08-07T04:06:19;15.30;43.80
652;DHT22;310;48.490;9.200;2023-08-07T04:08:46;15.50;43.20
652;DHT22;310;48.490;9.200;2023-08-07T04:11:12;16.00;43.30
652;DHT22;310;48.490;9.200;2023-08-07T04:13:38;15.70;41.70
652;DHT22;310;48.490;9.200;2023-08-07T04:16:04;15.50;44.10
652;DHT22;310;48.490;9.200;2023-08-07T04:18:30;15.80;42.20
652;DHT22;310;48.490;9.200;2023-08-07T04:20:57;16.10;42.80
652;DHT22;310;48.490;9.200;2023-08-07T04:23:23;15.80;41.50
652;DHT22;310;48.490;9.200;2023-08-07T04:25:50;15.80;43.00
652;DHT22;310;48.490;9.200;2023-08-07T04:28:16;16.30;40.10
652;DHT22;310;48.490;9.200;2023-08-07T04:30:43;16.60;41.00
652;DHT22;310;48.490;9.200;2023-08-07T04:33:10;16.40;41.20
652;DHT22;310;48.490;9.200;2023-08-07T04:35:36;17.20;41.60
652;DHT22;310;48.490;9.200;2023-08-07T04:40:28;16.30;39.60
652;DHT22;310;48.490;9.200;2023-08-07T04:42:54;16.60;40.40
652;DHT22;310;48.490;9.200;2023-08-07T04:45:19;16.00;42.50
652;DHT22;310;48.490;9.200;2023-08-07T04:47:45;16.70;42.20
652;DHT22;310;48.490;9.200;2023-08-07T04:50:11;16.50;39.70
652;DHT22;310;48.490;9.200;2023-08-07T04:52:37;16.90;38.80
652;DHT22;310;48.490;9.200;2023-08-07T04:55:02;16.90;38.80
652;DHT22;310;48.490;9.200;2023-08-07T04:57:28;15.80;41.40
652;DHT22;310;48.490;9.200;2023-08-07T04:59:54;14.10;38.40
652;DHT22;310;48.490;9.200;2023-08-07T05:02:19;16.10;41.50
652;DHT22;310;48.490;9.200;2023-08-07T05:04:45;16.10;41.60
652;DHT22;310;48.490;9.200;2023-08-07T05:07:11;15.90;40.60
652;DHT22;310;48.490;9.200;2023-08-07T05:09:37;16.70;41.60
652;DHT22;310;48.490;9.200;2023-08-07T05:12:04;16.10;41.30
652;DHT22;310;48.490;9.200;2023-08-07T05:14:29;16.10;42.00
652;DHT22;310;48.490;9.200;2023-08-07T05:16:55;16.10;42.30
652;DHT22;310;48.490;9.200;2023-08-07T05:19:21;16.40;40.20
652;DHT22;310;48.490;9.200;2023-08-07T05:21:47;16.10;40.70
652;DHT22;310;48.490;9.200;2023-08-07T05:24:15;16.50;41.70
652;DHT22;310;48.490;9.200;2023-08-07T05:26:41;16.50;40.50
652;DHT22;310;48.490;9.200;2023-08-07T05:29:06;16.70;39.70
652;DHT22;310;48.490;9.200;2023-08-07T05:31:33;16.20;42.10
652;DHT22;310;48.490;9.200;2023-08-07T05:33:59;16.00;42.20
652;DHT22;310;48.490;9.200;2023-08-07T05:36:24;15.90;42.00
652;DHT22;310;48.490;9.200;2023-08-07T05:38:50;15.50;44.30
652;DHT22;310;48.490;9.200;2023-08-07T05:41:15;16.00;43.60
652;DHT22;310;48.490;9.200;2023-08-07T05:43:42;16.50;41.70
652;DHT22;310;48.490;9.200;2023-08-07T05:46:07;16.60;41.30
652;DHT22;310;48.490;9.200;2023-08-07T05:48:33;16.40;40.80
652;DHT22;310;48.490;9.200;2023-08-07T05:50:59;16.70;40.50
652;DHT22;310;48.490;9.200;2023-08-07T05:53:24;16.20;40.10
652;DHT22;310;48.490;9.200;2023-08-07T05:55:50;15.90;42.20
652;DHT22;310;48.490;9.200;2023-08-07T05:58:15;15.50;42.00
652;DHT22;310;48.490;9.200;2023-08-07T06:00:41;15.70;43.20
652;DHT22;310;48.490;9.200;2023-08-07T06:03:06;16.00;42.20
652;DHT22;310;48.490;9.200;2023-08-07T06:05:33;16.30;41.10
652;DHT22;310;48.490;9.200;2023-08-07T06:08:00;16.70;39.80
652;DHT22;310;48.490;9.200;2023-08-07T06:10:27;17.20;39.00
652;DHT22;310;48.490;9.200;2023-08-07T06:12:52;17.20;38.70
652;DHT22;310;48.490;9.200;2023-08-07T06:15:18;16.80;38.70
652;DHT22;310;48.490;9.200;2023-08-07T06:17:44;16.30;42.30
652;DHT22;310;48.490;9.200;2023-08-07T06:20:10;16.30;41.60
652;DHT22;310;48.490;9.200;2023-08-07T06:22:37;15.10;44.00
652;DHT22;310;48.490;9.200;2023-08-07T06:25:03;15.30;44.50
652;DHT22;310;48.490;9.200;2023-08-07T06:27:29;15.40;44.30
652;DHT22;310;48.490;9.200;2023-08-07T06:29:56;16.20;42.80
652;DHT22;310;48.490;9.200;2023-08-07T06:32:22;16.40;40.50
652;DHT22;310;48.490;9.200;2023-08-07T06:34:47;16.70;40.50
652;DHT22;310;48.490;9.200;2023-08-07T06:37:13;17.00;38.90
652;DHT22;310;48.490;9.200;2023-08-07T06:39:39;17.50;39.20
652;DHT22;310;48.490;9.200;2023-08-07T06:42:05;17.40;39.20
652;DHT22;310;48.490;9.200;2023-08-07T06:44:30;17.40;38.60
652;DHT22;310;48.490;9.200;2023-08-07T06:46:56;17.60;38.00
652;DHT22;310;48.490;9.200;2023-08-07T06:49:21;17.40;39.00
652;DHT22;310;48.490;9.200;2023-08-07T06:51:47;17.40;39.40
652;DHT22;310;48.490;9.200;2023-08-07T06:54:13;17.30;39.90
652;DHT22;310;48.490;9.200;2023-08-07T06:56:38;18.00;39.90
652;DHT22;310;48.490;9.200;2023-08-07T06:59:06;17.50;38.80
652;DHT22;310;48.490;9.200;2023-08-07T07:01:32;17.20;39.90
652;DHT22;310;48.490;9.200;2023-08-07T07:03:57;17.00;39.50
652;DHT22;310;48.490;9.200;2023-08-07T07:06:23;17.50;40.10
652;DHT22;310;48.490;9.200;2023-08-07T07:08:51;17.00;39.80
652;DHT22;310;48.490;9.200;2023-08-07T07:11:19;17.20;40.40
652;DHT22;310;48.490;9.200;2023-08-07T07:13:46;17.10;41.60
652;DHT22;310;48.490;9.200;2023-08-07T07:16:11;16.70;41.50
652;DHT22;310;48.490;9.200;2023-08-07T07:18:38;16.50;42.50
652;DHT22;310;48.490;9.200;2023-08-07T07:21:04;16.90;42.10
652;DHT22;310;48.490;9.200;2023-08-07T07:23:30;17.00;41.60
652;DHT22;310;48.490;9.200;2023-08-07T07:25:56;16.80;43.50
652;DHT22;310;48.490;9.200;2023-08-07T07:28:23;16.90;42.20
652;DHT22;310;48.490;9.200;2023-08-07T07:30:49;17.00;42.30
652;DHT22;310;48.490;9.200;2023-08-07T07:33:15;16.60;42.70
652;DHT22;310;48.490;9.200;2023-08-07T07:35:41;17.30;42.00
652;DHT22;310;48.490;9.200;2023-08-07T07:38:07;16.40;44.20
652;DHT22;310;48.490;9.200;2023-08-07T07:40:34;16.40;45.60
652;DHT22;310;48.490;9.200;2023-08-07T07:43:00;16.90;42.90
652;DHT22;310;48.490;9.200;2023-08-07T07:45:25;17.60;41.00
652;DHT22;310;48.490;9.200;2023-08-07T07:47:51;16.80;42.50
652;DHT22;310;48.490;9.200;2023-08-07T07:50:16;16.90;43.70
652;DHT22;310;48.490;9.200;2023-08-07T07:52:42;17.10;42.50
652;DHT22;310;48.490;9.200;2023-08-07T07:55:09;16.70;44.10
652;DHT22;310;48.490;9.200;2023-08-07T07:57:35;16.80;42.40
652;DHT22;310;48.490;9.200;2023-08-07T08:00:01;16.60;43.30
652;DHT22;310;48.490;9.200;2023-08-07T08:02:28;17.30;41.90
652;DHT22;310;48.490;9.200;2023-08-07T08:04:53;17.20;42.10
652;DHT22;310;48.490;9.200;2023-08-07T08:07:19;17.70;39.70
652;DHT22;310;48.490;9.200;2023-08-07T08:09:45;17.50;41.50
652;DHT22;310;48.490;9.200;2023-08-07T08:12:10;17.30;42.30
652;DHT22;310;48.490;9.200;2023-08-07T08:14:36;17.60;41.30
652;DHT22;310;48.490;9.200;2023-08-07T08:17:02;17.40;41.10
652;DHT22;310;48.490;9.200;2023-08-07T08:19:27;17.80;40.30
652;DHT22;310;48.490;9.200;2023-08-07T08:21:53;17.30;39.10
652;DHT22;310;48.490;9.200;2023-08-07T08:24:19;16.80;39.80
652;DHT22;310;48.490;9.200;2023-08-07T08:26:44;17.10;41.50
652;DHT22;310;48.490;9.200;2023-08-07T08:29:14;17.50;40.40
652;DHT22;310;48.490;9.200;2023-08-07T08:31:40;17.20;40.20
652;DHT22;310;48.490;9.200;2023-08-07T08:34:05;16.70;38.60
652;DHT22;310;48.490;9.200;2023-08-07T08:36:31;16.50;39.50
652;DHT22;310;48.490;9.200;2023-08-07T08:38:56;17.00;40.50
652;DHT22;310;48.490;9.200;2023-08-07T08:41:22;17.50;37.70
652;DHT22;310;48.490;9.200;2023-08-07T08:43:49;17.40;39.20
652;DHT22;310;48.490;9.200;2023-08-07T08:46:19;17.20;39.10
652;DHT22;310;48.490;9.200;2023-08-07T08:48:50;17.10;40.00
652;DHT22;310;48.490;9.200;2023-08-07T08:51:16;16.90;38.80
652;DHT22;310;48.490;9.200;2023-08-07T08:53:45;17.30;38.30
652;DHT22;310;48.490;9.200;2023-08-07T08:56:11;17.40;36.10
652;DHT22;310;48.490;9.200;2023-08-07T08:58:37;16.80;34.70
652;DHT22;310;48.490;9.200;2023-08-07T09:01:04;16.50;35.90
652;DHT22;310;48.490;9.200;2023-08-07T09:03:31;16.90;35.80
652;DHT22;310;48.490;9.200;2023-08-07T09:05:58;17.00;33.40
652;DHT22;310;48.490;9.200;2023-08-07T09:08:27;17.40;33.90
652;DHT22;310;48.490;9.200;2023-08-07T09:10:55;17.10;34.20
652;DHT22;310;48.490;9.200;2023-08-07T09:13:23;16.80;34.80
652;DHT22;310;48.490;9.200;2023-08-07T09:15:51;17.30;36.10
652;DHT22;310;48.490;9.200;2023-08-07T09:18:17;16.80;33.60
652;DHT22;310;48.490;9.200;2023-08-07T09:20:44;17.20;34.50
652;DHT22;310;48.490;9.200;2023-08-07T09:23:10;16.60;34.60
652;DHT22;310;48.490;9.200;2023-08-07T09:25:36;16.80;35.00
652;DHT22;310;48.490;9.200;2023-08-07T09:28:03;17.10;35.00
652;DHT22;310;48.490;9.200;2023-08-07T09:30:30;17.60;33.60
652;DHT22;310;48.490;9.200;2023-08-07T09:32:59;17.80;33.90
652;DHT22;310;48.490;9.200;2023-08-07T09:35:26;17.70;34.40
652;DHT22;310;48.490;9.200;2023-08-07T09:37:51;17.40;35.40
652;DHT22;310;48.490;9.200;2023-08-07T09:40:18;17.30;31.90
652;DHT22;310;48.490;9.200;2023-08-07T09:42:43;17.00;32.10
652;DHT22;310;48.490;9.200;2023-08-07T09:45:25;17.20;31.60
652;DHT22;310;48.490;9.200;2023-08-07T09:48:01;17.00;31.20
652;DHT22;310;48.490;9.200;2023-08-07T09:50:27;17.40;31.60
652;DHT22;310;48.490;9.200;2023-08-07T09:52:54;17.30;30.70
652;DHT22;310;48.490;9.200;2023-08-07T09:55:21;17.40;31.30
652;DHT22;310;48.490;9.200;2023-08-07T09:57:46;17.90;31.90
652;DHT22;310;48.490;9.200;2023-08-07T10:00:12;17.90;29.40
652;DHT22;310;48.490;9.200;2023-08-07T10:02:41;17.80;29.70
652;DHT22;310;48.490;9.200;2023-08-07T10:05:09;18.00;29.60
652;DHT22;310;48.490;9.200;2023-08-07T10:07:39;17.80;28.70
652;DHT22;310;48.490;9.200;2023-08-07T10:10:06;17.20;29.70
652;DHT22;310;48.490;9.200;2023-08-07T10:12:32;17.30;30.00
652;DHT22;310;48.490;9.200;2023-08-07T10:14:59;17.90;30.20
652;DHT22;310;48.490;9.200;2023-08-07T10:17:26;17.80;30.00
652;DHT22;310;48.490;9.200;2023-08-07T10:19:52;17.40;31.70
652;DHT22;310;48.490;9.200;2023-08-07T10:22:19;17.30;30.80
652;DHT22;310;48.490;9.200;2023-08-07T10:24:47;17.30;32.60
652;DHT22;310;48.490;9.200;2023-08-07T10:27:15;17.70;32.80
652;DHT22;310;48.490;9.200;2023-08-07T10:29:42;18.10;29.10
652;DHT22;310;48.490;9.200;2023-08-07T10:32:10;17.90;30.70
652;DHT22;310;48.490;9.200;2023-08-07T10:34:37;18.00;30.00
652;DHT22;310;48.490;9.200;2023-08-07T10:37:06;18.00;29.00
652;DHT22;310;48.490;9.200;2023-08-07T10:39:31;18.30;28.80
652;DHT22;310;48.490;9.200;2023-08-07T10:41:58;19.10;27.30
652;DHT22;310;48.490;9.200;2023-08-07T10:44:30;19.30;28.80
652;DHT22;310;48.490;9.200;2023-08-07T10:46:57;18.80;27.80
652;DHT22;310;48.490;9.200;2023-08-07T10:49:36;18.80;28.60
652;DHT22;310;48.490;9.200;2023-08-07T10:52:09;18.50;28.70
652;DHT22;310;48.490;9.200;2023-08-07T10:54:41;18.30;27.90
652;DHT22;310;48.490;9.200;2023-08-07T10:57:14;17.80;28.80
652;DHT22;310;48.490;9.200;2023-08-07T11:02:30;17.90;28.90
652;DHT22;310;48.490;9.200;2023-08-07T11:04:56;17.80;29.00
652;DHT22;310;48.490;9.200;2023-08-07T11:07:26;17.80;27.80
652;DHT22;310;48.490;9.200;2023-08-07T11:09:53;17.90;28.20
652;DHT22;310;48.490;9.200;2023-08-07T11:12:19;17.70;28.90
652;DHT22;310;48.490;9.200;2023-08-07T11:14:45;17.90;29.70
652;DHT22;310;48.490;9.200;2023-08-07T11:17:11;17.90;29.20
652;DHT22;310;48.490;9.200;2023-08-07T11:19:38;18.00;29.50
652;DHT22;310;48.490;9.200;2023-08-07T11:22:04;19.30;28.90
652;DHT22;310;48.490;9.200;2023-08-07T11:24:30;19.30;27.20
652;DHT22;310;48.490;9.200;2023-08-07T11:26:56;20.00;26.40
652;DHT22;310;48.490;9.200;2023-08-07T11:29:24;20.00;28.10
652;DHT22;310;48.490;9.200;2023-08-07T11:31:50;19.70;27.10
652;DHT22;310;48.490;9.200;2023-08-07T11:34:19;19.60;25.70
652;DHT22;310;48.490;9.200;2023-08-07T11:36:45;18.40;27.20
652;DHT22;310;48.490;9.200;2023-08-07T11:39:12;18.20;28.20
652;DHT22;310;48.490;9.200;2023-08-07T11:41:37;17.70;28.30
652;DHT22;310;48.490;9.200;2023-08-07T11:44:03;18.20;29.80
652;DHT22;310;48.490;9.200;2023-08-07T11:46:29;17.70;28.80
652;DHT22;310;48.490;9.200;2023-08-07T11:48:56;17.60;29.20
652;DHT22;310;48.490;9.200;2023-08-07T11:51:22;17.80;29.50
652;DHT22;310;48.490;9.200;2023-08-07T11:53:48;18.00;30.20
652;DHT22;310;48.490;9.200;2023-08-07T11:56:13;17.80;29.80
652;DHT22;310;48.490;9.200;2023-08-07T11:58:45;18.00;29.70
652;DHT22;310;48.490;9.200;2023-08-07T12:01:23;18.10;29.70
652;DHT22;310;48.490;9.200;2023-08-07T12:03:56;18.10;29.30
652;DHT22;310;48.490;9.200;2023-08-07T12:06:24;18.20;29.90
652;DHT22;310;48.490;9.200;2023-08-07T12:08:54;18.00;29.70
652;DHT22;310;48.490;9.200;2023-08-07T12:11:20;18.80;29.60
652;DHT22;310;48.490;9.200;2023-08-07T12:13:46;18.60;29.30
652;DHT22;310;48.490;9.200;2023-08-07T12:16:14;18.20;28.60
652;DHT22;310;48.490;9.200;2023-08-07T12:21:13;17.50;30.30
652;DHT22;310;48.490;9.200;2023-08-07T12:23:39;17.30;30.00
652;DHT22;310;48.490;9.200;2023-08-07T12:26:05;17.20;31.00
652;DHT22;310;48.490;9.200;2023-08-07T12:28:35;17.20;30.60
652;DHT22;310;48.490;9.200;2023-08-07T12:31:01;16.90;31.00
652;DHT22;310;48.490;9.200;2023-08-07T12:33:29;16.90;30.30
652;DHT22;310;48.490;9.200;2023-08-07T12:35:54;17.50;31.00
652;DHT22;310;48.490;9.200;2023-08-07T12:38:20;17.10;29.90
652;DHT22;310;48.490;9.200;2023-08-07T12:40:46;17.30;31.00
652;DHT22;310;48.490;9.200;2023-08-07T12:43:11;17.50;30.00
652;DHT22;310;48.490;9.200;2023-08-07T12:45:37;17.40;30.40
652;DHT22;310;48.490;9.200;2023-08-07T12:48:03;17.80;29.80
652;DHT22;310;48.490;9.200;2023-08-07T12:50:29;17.50;31.00
652;DHT22;310;48.490;9.200;2023-08-07T12:52:55;17.90;30.60
652;DHT22;310;48.490;9.200;2023-08-07T12:55:20;19.00;29.90
652;DHT22;310;48.490;9.200;2023-08-07T12:57:46;18.20;28.60
652;DHT22;310;48.490;9.200;2023-08-07T13:00:13;17.90;29.60
652;DHT22;310;48.490;9.200;2023-08-07T13:02:41;17.60;30.00
652;DHT22;310;48.490;9.200;2023-08-07T13:05:07;17.90;30.00
652;DHT22;310;48.490;9.200;2023-08-07T13:07:34;18.30;29.10
652;DHT22;310;48.490;9.200;2023-08-07T13:10:00;18.10;29.40
652;DHT22;310;48.490;9.200;2023-08-07T13:12:25;18.70;30.00
652;DHT22;310;48.490;9.200;2023-08-07T13:14:51;18.10;30.20
652;DHT22;310;48.490;9.200;2023-08-07T13:17:16;18.30;30.90
652;DHT22;310;48.490;9.200;2023-08-07T13:19:42;18.60;30.70
652;DHT22;310;48.490;9.200;2023-08-07T13:22:08;19.10;28.90
652;DHT22;310;48.490;9.200;2023-08-07T13:24:33;18.70;29.50
652;DHT22;310;48.490;9.200;2023-08-07T13:26:59;19.10;29.20
652;DHT22;310;48.490;9.200;2023-08-07T13:29:24;18.80;29.50
652;DHT22;310;48.490;9.200;2023-08-07T13:31:51;18.50;29.70
652;DHT22;310;48.490;9.200;2023-08-07T13:34:17;18.20;30.00
652;DHT22;310;48.490;9.200;2023-08-07T13:36:43;19.20;30.00
652;DHT22;310;48.490;9.200;2023-08-07T13:39:08;18.80;30.00
652;DHT22;310;48.490;9.200;2023-08-07T13:41:34;19.10;29.80
652;DHT22;310;48.490;9.200;2023-08-07T13:44:00;19.40;30.30
652;DHT22;310;48.490;9.200;2023-08-07T13:46:26;19.40;29.90
652;DHT22;310;48.490;9.200;2023-08-07T13:48:52;19.30;29.90
652;DHT22;310;48.490;9.200;2023-08-07T13:51:19;18.50;30.60
652;DHT22;310;48.490;9.200;2023-08-07T13:53:45;18.30;31.00
652;DHT22;310;48.490;9.200;2023-08-07T13:56:10;18.90;31.60
652;DHT22;310;48.490;9.200;2023-08-07T13:58:39;17.90;32.40
652;DHT22;310;48.490;9.200;2023-08-07T14:01:05;18.00;33.20
652;DHT22;310;48.490;9.200;2023-08-07T14:03:31;18.50;31.90
652;DHT22;310;48.490;9.200;2023-08-07T14:05:56;18.40;31.30
652;DHT22;310;48.490;9.200;2023-08-07T14:08:22;18.80;29.00
652;DHT22;310;48.490;9.200;2023-08-07T14:10:48;18.80;29.30
652;DHT22;310;48.490;9.200;2023-08-07T14:13:13;18.50;29.00
652;DHT22;310;48.490;9.200;2023-08-07T14:15:39;18.80;30.00
652;DHT22;310;48.490;9.200;2023-08-07T14:18:05;19.40;29.00
652;DHT22;310;48.490;9.200;2023-08-07T14:20:31;19.50;28.50
652;DHT22;310;48.490;9.200;2023-08-07T14:22:57;20.40;28.10
652;DHT22;310;48.490;9.200;2023-08-07T14:25:23;21.30;26.40
652;DHT22;310;48.490;9.200;2023-08-07T14:27:49;20.80;26.60
652;DHT22;310;48.490;9.200;2023-08-07T14:30:15;21.40;26.70
652;DHT22;310;48.490;9.200;2023-08-07T14:32:40;20.80;26.50
652;DHT22;310;48.490;9.200;2023-08-07T14:35:08;19.70;27.90
652;DHT22;310;48.490;9.200;2023-08-07T14:37:34;20.00;29.30
652;DHT22;310;48.490;9.200;2023-08-07T14:40:01;20.40;28.60
652;DHT22;310;48.490;9.200;2023-08-07T14:42:26;20.50;27.30
652;DHT22;310;48.490;9.200;2023-08-07T14:44:52;20.20;27.20
652;DHT22;310;48.490;9.200;2023-08-07T14:47:19;19.40;27.50
652;DHT22;310;48.490;9.200;2023-08-07T14:49:44;19.40;28.50
652;DHT22;310;48.490;9.200;2023-08-07T14:52:10;19.80;28.30
652;DHT22;310;48.490;9.200;2023-08-07T14:54:35;19.70;26.60
652;DHT22;310;48.490;9.200;2023-08-07T14:57:01;19.40;27.00
652;DHT22;310;48.490;9.200;2023-08-07T14:59:26;18.80;27.50
652;DHT22;310;48.490;9.200;2023-08-07T15:01:52;18.80;28.60
652;DHT22;310;48.490;9.200;2023-08-07T15:04:17;18.60;28.90
652;DHT22;310;48.490;9.200;2023-08-07T15:06:43;18.50;29.10
652;DHT22;310;48.490;9.200;2023-08-07T15:09:12;18.60;29.90
652;DHT22;310;48.490;9.200;2023-08-07T15:11:37;18.30;29.40
652;DHT22;310;48.490;9.200;2023-08-07T15:14:03;18.50;29.20
652;DHT22;310;48.490;9.200;2023-08-07T15:16:30;18.50;29.10
652;DHT22;310;48.490;9.200;2023-08-07T15:18:56;18.70;30.20
652;DHT22;310;48.490;9.200;2023-08-07T15:21:21;18.50;30.40
652;DHT22;310;48.490;9.200;2023-08-07T15:23:47;19.10;30.30
652;DHT22;310;48.490;9.200;2023-08-07T15:26:12;19.10;29.00
652;DHT22;310;48.490;9.200;2023-08-07T15:28:38;19.40;29.10
652;DHT22;310;48.490;9.200;2023-08-07T15:31:05;19.50;28.90
652;DHT22;310;48.490;9.200;2023-08-07T15:33:30;19.50;29.00
652;DHT22;310;48.490;9.200;2023-08-07T15:35:56;19.00;29.20
652;DHT22;310;48.490;9.200;2023-08-07T15:38:24;19.40;29.10
652;DHT22;310;48.490;9.200;2023-08-07T15:40:50;16.90;26.60
652;DHT22;310;48.490;9.200;2023-08-07T15:43:16;19.80;28.30
652;DHT22;310;48.490;9.200;2023-08-07T15:45:44;20.10;28.00
652;DHT22;310;48.490;9.200;2023-08-07T15:48:09;20.10;28.80
652;DHT22;310;48.490;9.200;2023-08-07T15:50:35;20.50;28.00
652;DHT22;310;48.490;9.200;2023-08-07T15:53:04;20.30;27.70
652;DHT22;310;48.490;9.200;2023-08-07T15:55:30;19.50;27.80
652;DHT22;310;48.490;9.200;2023-08-07T15:57:57;19.40;28.30
652;DHT22;310;48.490;9.200;2023-08-07T16:00:23;19.90;27.60
652;DHT22;310;48.490;9.200;2023-08-07T16:02:48;20.20;26.80
652;DHT22;310;48.490;9.200;2023-08-07T16:05:14;20.70;26.50
652;DHT22;310;48.490;9.200;2023-08-07T16:07:40;20.60;26.40
652;DHT22;310;48.490;9.200;2023-08-07T16:10:06;20.30;26.20
652;DHT22;310;48.490;9.200;2023-08-07T16:12:31;20.50;27.50
652;DHT22;310;48.490;9.200;2023-08-07T16:14:57;21.10;26.80
652;DHT22;310;48.490;9.200;2023-08-07T16:17:25;20.90;25.70
652;DHT22;310;48.490;9.200;2023-08-07T16:19:51;20.00;26.70
652;DHT22;310;48.490;9.200;2023-08-07T16:22:16;19.60;26.60
652;DHT22;310;48.490;9.200;2023-08-07T16:24:42;19.70;26.70
652;DHT22;310;48.490;9.200;2023-08-07T16:27:07;19.80;26.80
652;DHT22;310;48.490;9.200;2023-08-07T16:29:34;19.50;27.30
652;DHT22;310;48.490;9.200;2023-08-07T16:31:59;19.70;26.90
652;DHT22;310;48.490;9.200;2023-08-07T16:34:30;19.90;25.90
652;DHT22;310;48.490;9.200;2023-08-07T16:36:55;20.50;26.40
652;DHT22;310;48.490;9.200;2023-08-07T16:39:21;20.50;26.00
652;DHT22;310;48.490;9.200;2023-08-07T16:41:46;20.50;26.60
652;DHT22;310;48.490;9.200;2023-08-07T16:44:12;20.50;25.30